sensor_id;sensor_type;location;lat;lon;timestamp;P1;durP1;ratioP1;P2;durP2;ratioP2
25319;SDS011;13256;49.012;8.610;2023-03-01T00:01:41;19.95;;;9.13;;
25319;SDS011;13256;49.012;8.610;2023-03-01T00:04:07;20.30;;;10.38;;
25319;SDS011;13256;49.012;8.610;2023-03-01T00:06:38;20.02;;;8.98;;
25319;SDS011;13256;49.012;8.610;2023-03-01T00:09:04;18.48;;;8.73;;
25319;SDS011;13256;49.012;8.610;2023-03-01T00:11:34;20.02;;;8.73;;
25319;SDS011;13256;49.012;8.610;2023-03-01T00:14:01;23.33;;;10.00;;
25319;SDS011;13256;49.012;8.610;2023-03-01T00:16:35;23.58;;;10.45;;
25319;SDS011;13256;49.012;8.610;2023-03-01T00:19:12;23.88;;;9.57;;
25319;SDS011;13256;49.012;8.610;2023-03-01T00:21:41;21.85;;;9.10;;
25319;SDS011;13256;49.012;8.610;2023-03-01T00:24:11;22.80;;;11.07;;
25319;SDS011;13256;49.012;8.610;2023-03-01T00:26:38;22.63;;;10.05;;
25319;SDS011;13256;49.012;8.610;2023-03-01T00:29:05;18.27;;;9.20;;
25319;SDS011;13256;49.012;8.610;2023-03-01T00:31:34;17.70;;;8.82;;
25319;SDS011;13256;49.012;8.610;2023-03-01T00:34:07;20.50;;;8.60;;
25319;SDS011;13256;49.012;8.610;2023-03-01T00:36:35;18.30;;;8.52;;
25319;SDS011;13256;49.012;8.610;2023-03-01T00:39:03;16.67;;;7.35;;
25319;SDS011;13256;49.012;8.610;2023-03-01T00:41:34;19.48;;;7.60;;
25319;SDS011;13256;49.012;8.610;2023-03-01T00:44:03;21.63;;;9.30;;
25319;SDS011;13256;49.012;8.610;2023-03-01T00:46:30;17.88;;;7.82;;
25319;SDS011;13256;49.012;8.610;2023-03-01T00:48:58;24.38;;;10.68;;
25319;SDS011;13256;49.012;8.610;2023-03-01T00:51:29;23.60;;;9.93;;
25319;SDS011;13256;49.012;8.610;2023-03-01T00:53:57;18.77;;;8.40;;
25319;SDS011;13256;49.012;8.610;2023-03-01T00:56:26;44.67;;;18.48;;
25319;SDS011;13256;49.012;8.610;2023-03-01T00:58:52;32.78;;;14.02;;
25319;SDS011;13256;49.012;8.610;2023-03-01T01:01:20;17.50;;;8.50;;
25319;SDS011;13256;49.012;8.610;2023-03-01T01:03:54;18.63;;;8.70;;
25319;SDS011;13256;49.012;8.610;2023-03-01T01:06:26;16.50;;;8.43;;
25319;SDS011;13256;49.012;8.610;2023-03-01T01:08:57;16.38;;;8.20;;
25319;SDS011;13256;49.012;8.610;2023-03-01T01:11:25;18.92;;;8.25;;
25319;SDS011;13256;49.012;8.610;2023-03-01T01:13:53;15.65;;;7.95;;
25319;SDS011;13256;49.012;8.610;2023-03-01T01:16:21;16.33;;;8.07;;
25319;SDS011;13256;49.012;8.610;2023-03-01T01:18:53;16.60;;;7.78;;
25319;SDS011;13256;49.012;8.610;2023-03-01T01:21:21;15.27;;;7.65;;
25319;SDS011;13256;49.012;8.610;2023-03-01T01:23:50;17.13;;;7.80;;
25319;SDS011;13256;49.012;8.610;2023-03-01T01:26:25;22.23;;;8.45;;
25319;SDS011;13256;49.012;8.610;2023-03-01T01:28:57;15.60;;;7.80;;
25319;SDS011;13256;49.012;8.610;2023-03-01T01:31:24;16.83;;;7.28;;
25319;SDS011;13256;49.012;8.610;2023-03-01T01:33:52;15.57;;;7.53;;
25319;SDS011;13256;49.012;8.610;2023-03-01T01:36:24;16.77;;;8.23;;
25319;SDS011;13256;49.012;8.610;2023-03-01T01:38:50;17.25;;;8.07;;
25319;SDS011;13256;49.012;8.610;2023-03-01T01:41:18;18.70;;;8.45;;
25319;SDS011;13256;49.012;8.610;2023-03-01T01:43:49;18.67;;;8.00;;
25319;SDS011;13256;49.012;8.610;2023-03-01T01:46:41;15.55;;;8.10;;
25319;SDS011;13256;49.012;8.610;2023-03-01T01:51:44;13.88;;;7.60;;
25319;SDS011;13256;49.012;8.610;2023-03-01T01:54:19;19.48;;;8.60;;
25319;SDS011;13256;49.012;8.610;2023-03-01T01:57:01;15.15;;;7.63;;
25319;SDS011;13256;49.012;8.610;2023-03-01T02:00:00;17.52;;;8.32;;
25319;SDS011;13256;49.012;8.610;2023-03-01T02:02:39;19.80;;;8.98;;
25319;SDS011;13256;49.012;8.610;2023-03-01T02:05:38;18.50;;;8.88;;
25319;SDS011;13256;49.012;8.610;2023-03-01T02:08:22;15.95;;;7.55;;
25319;SDS011;13256;49.012;8.610;2023-03-01T02:10:57;16.52;;;8.32;;
25319;SDS011;13256;49.012;8.610;2023-03-01T02:13:26;20.25;;;8.52;;
25319;SDS011;13256;49.012;8.610;2023-03-01T02:15:54;20.15;;;9.15;;
25319;SDS011;13256;49.012;8.610;2023-03-01T02:18:21;22.65;;;9.85;;
25319;SDS011;13256;49.012;8.610;2023-03-01T02:23:18;19.85;;;9.10;;
25319;SDS011;13256;49.012;8.610;2023-03-01T02:25:56;17.20;;;8.70;;
25319;SDS011;13256;49.012;8.610;2023-03-01T02:28:33;18.60;;;9.35;;
25319;SDS011;13256;49.012;8.610;2023-03-01T02:31:05;19.30;;;8.63;;
25319;SDS011;13256;49.012;8.610;2023-03-01T02:33:52;17.20;;;8.30;;
25319;SDS011;13256;49.012;8.610;2023-03-01T02:36:21;20.05;;;8.52;;
25319;SDS011;13256;49.012;8.610;2023-03-01T02:38:58;20.25;;;8.63;;
25319;SDS011;13256;49.012;8.610;2023-03-01T02:41:30;16.08;;;7.13;;
25319;SDS011;13256;49.012;8.610;2023-03-01T02:44:02;22.08;;;9.13;;
25319;SDS011;13256;49.012;8.610;2023-03-01T02:46:29;17.25;;;8.55;;
25319;SDS011;13256;49.012;8.610;2023-03-01T02:49:01;16.73;;;8.55;;
25319;SDS011;13256;49.012;8.610;2023-03-01T02:54:48;18.08;;;8.55;;
25319;SDS011;13256;49.012;8.610;2023-03-01T02:57:22;16.40;;;8.52;;
25319;SDS011;13256;49.012;8.610;2023-03-01T02:59:52;17.70;;;8.68;;
25319;SDS011;13256;49.012;8.610;2023-03-01T03:02:23;20.48;;;8.90;;
25319;SDS011;13256;49.012;8.610;2023-03-01T03:05:10;18.70;;;8.70;;
25319;SDS011;13256;49.012;8.610;2023-03-01T03:07:43;19.55;;;8.90;;
25319;SDS011;13256;49.012;8.610;2023-03-01T03:12:53;19.20;;;9.30;;
25319;SDS011;13256;49.012;8.610;2023-03-01T03:15:31;20.98;;;9.18;;
25319;SDS011;13256;49.012;8.610;2023-03-01T03:18:07;22.17;;;9.35;;
25319;SDS011;13256;49.012;8.610;2023-03-01T03:20:38;19.75;;;9.02;;
25319;SDS011;13256;49.012;8.610;2023-03-01T03:23:09;20.45;;;9.60;;
25319;SDS011;13256;49.012;8.610;2023-03-01T03:25:38;16.02;;;8.32;;
25319;SDS011;13256;49.012;8.610;2023-03-01T03:28:06;21.73;;;9.55;;
25319;SDS011;13256;49.012;8.610;2023-03-01T03:30:38;21.40;;;9.50;;
25319;SDS011;13256;49.012;8.610;2023-03-01T03:33:06;21.00;;;9.40;;
25319;SDS011;13256;49.012;8.610;2023-03-01T03:36:05;24.35;;;9.35;;
25319;SDS011;13256;49.012;8.610;2023-03-01T03:38:32;18.67;;;8.98;;
25319;SDS011;13256;49.012;8.610;2023-03-01T03:41:03;23.33;;;10.60;;
25319;SDS011;13256;49.012;8.610;2023-03-01T03:43:32;20.08;;;9.30;;
25319;SDS011;13256;49.012;8.610;2023-03-01T03:46:02;19.33;;;9.82;;
25319;SDS011;13256;49.012;8.610;2023-03-01T03:48:50;22.90;;;9.77;;
25319;SDS011;13256;49.012;8.610;2023-03-01T03:51:27;21.50;;;9.65;;
25319;SDS011;13256;49.012;8.610;2023-03-01T03:53:54;21.80;;;9.45;;
25319;SDS011;13256;49.012;8.610;2023-03-01T03:56:20;18.35;;;9.77;;
25319;SDS011;13256;49.012;8.610;2023-03-01T03:59:19;19.33;;;9.52;;
25319;SDS011;13256;49.012;8.610;2023-03-01T04:01:47;18.17;;;9.60;;
25319;SDS011;13256;49.012;8.610;2023-03-01T04:04:18;18.98;;;9.18;;
25319;SDS011;13256;49.012;8.610;2023-03-01T04:06:44;19.88;;;9.77;;
25319;SDS011;13256;49.012;8.610;2023-03-01T04:09:14;20.13;;;9.75;;
25319;SDS011;13256;49.012;8.610;2023-03-01T04:11:41;22.75;;;10.50;;
25319;SDS011;13256;49.012;8.610;2023-03-01T04:14:07;23.25;;;10.45;;
25319;SDS011;13256;49.012;8.610;2023-03-01T04:16:37;19.25;;;9.77;;
25319;SDS011;13256;49.012;8.610;2023-03-01T04:19:14;22.10;;;9.98;;
25319;SDS011;13256;49.012;8.610;2023-03-01T04:21:41;20.08;;;9.15;;
25319;SDS011;13256;49.012;8.610;2023-03-01T04:24:10;22.88;;;10.00;;
25319;SDS011;13256;49.012;8.610;2023-03-01T04:26:37;22.55;;;9.75;;
25319;SDS011;13256;49.012;8.610;2023-03-01T04:29:04;23.45;;;9.93;;
25319;SDS011;13256;49.012;8.610;2023-03-01T04:31:30;22.40;;;9.60;;
25319;SDS011;13256;49.012;8.610;2023-03-01T04:33:57;19.52;;;8.93;;
25319;SDS011;13256;49.012;8.610;2023-03-01T04:36:25;23.85;;;10.35;;
25319;SDS011;13256;49.012;8.610;2023-03-01T04:38:57;23.77;;;9.60;;
25319;SDS011;13256;49.012;8.610;2023-03-01T04:41:24;23.65;;;9.63;;
25319;SDS011;13256;49.012;8.610;2023-03-01T04:43:59;22.77;;;10.00;;
25319;SDS011;13256;49.012;8.610;2023-03-01T04:46:30;19.48;;;9.45;;
25319;SDS011;13256;49.012;8.610;2023-03-01T04:48:57;22.42;;;9.75;;
25319;SDS011;13256;49.012;8.610;2023-03-01T04:51:24;24.58;;;10.13;;
25319;SDS011;13256;49.012;8.610;2023-03-01T04:53:51;22.98;;;10.30;;
25319;SDS011;13256;49.012;8.610;2023-03-01T04:56:17;22.80;;;10.52;;
25319;SDS011;13256;49.012;8.610;2023-03-01T04:58:44;23.02;;;9.73;;
25319;SDS011;13256;49.012;8.610;2023-03-01T05:01:14;22.85;;;9.88;;
25319;SDS011;13256;49.012;8.610;2023-03-01T05:03:43;27.70;;;10.70;;
25319;SDS011;13256;49.012;8.610;2023-03-01T05:06:12;20.95;;;9.20;;
25319;SDS011;13256;49.012;8.610;2023-03-01T05:08:41;21.10;;;10.02;;
25319;SDS011;13256;49.012;8.610;2023-03-01T05:11:11;22.58;;;10.20;;
25319;SDS011;13256;49.012;8.610;2023-03-01T05:13:39;21.75;;;10.52;;
25319;SDS011;13256;49.012;8.610;2023-03-01T05:16:06;18.02;;;9.68;;
25319;SDS011;13256;49.012;8.610;2023-03-01T05:18:39;20.90;;;10.02;;
25319;SDS011;13256;49.012;8.610;2023-03-01T05:21:09;24.63;;;10.38;;
25319;SDS011;13256;49.012;8.610;2023-03-01T05:23:38;24.70;;;10.48;;
25319;SDS011;13256;49.012;8.610;2023-03-01T05:26:09;27.35;;;11.32;;
25319;SDS011;13256;49.012;8.610;2023-03-01T05:28:55;24.35;;;11.05;;
25319;SDS011;13256;49.012;8.610;2023-03-01T05:31:35;31.88;;;12.68;;
25319;SDS011;13256;49.012;8.610;2023-03-01T05:34:04;24.00;;;10.82;;
25319;SDS011;13256;49.012;8.610;2023-03-01T05:36:34;23.33;;;10.23;;
25319;SDS011;13256;49.012;8.610;2023-03-01T05:39:04;23.27;;;10.25;;
25319;SDS011;13256;49.012;8.610;2023-03-01T05:41:31;21.85;;;10.50;;
25319;SDS011;13256;49.012;8.610;2023-03-01T05:43:58;28.05;;;11.77;;
25319;SDS011;13256;49.012;8.610;2023-03-01T05:46:25;22.15;;;9.98;;
25319;SDS011;13256;49.012;8.610;2023-03-01T05:48:54;24.60;;;10.82;;
25319;SDS011;13256;49.012;8.610;2023-03-01T05:51:24;23.60;;;10.20;;
25319;SDS011;13256;49.012;8.610;2023-03-01T05:53:52;22.65;;;10.02;;
25319;SDS011;13256;49.012;8.610;2023-03-01T05:56:22;24.30;;;10.23;;
25319;SDS011;13256;49.012;8.610;2023-03-01T05:58:55;27.60;;;12.20;;
25319;SDS011;13256;49.012;8.610;2023-03-01T06:01:29;28.55;;;11.65;;
25319;SDS011;13256;49.012;8.610;2023-03-01T06:04:09;25.67;;;12.25;;
25319;SDS011;13256;49.012;8.610;2023-03-01T06:06:40;30.50;;;13.30;;
25319;SDS011;13256;49.012;8.610;2023-03-01T06:12:12;57.42;;;25.13;;
25319;SDS011;13256;49.012;8.610;2023-03-01T06:14:42;42.17;;;18.33;;
25319;SDS011;13256;49.012;8.610;2023-03-01T06:17:11;29.05;;;11.75;;
25319;SDS011;13256;49.012;8.610;2023-03-01T06:19:42;26.10;;;11.27;;
25319;SDS011;13256;49.012;8.610;2023-03-01T06:22:33;23.08;;;10.38;;
25319;SDS011;13256;49.012;8.610;2023-03-01T06:25:04;25.60;;;11.27;;
25319;SDS011;13256;49.012;8.610;2023-03-01T06:27:33;27.23;;;11.38;;
25319;SDS011;13256;49.012;8.610;2023-03-01T06:30:05;19.98;;;10.05;;
25319;SDS011;13256;49.012;8.610;2023-03-01T06:32:39;26.92;;;11.50;;
25319;SDS011;13256;49.012;8.610;2023-03-01T06:35:13;25.92;;;11.38;;
25319;SDS011;13256;49.012;8.610;2023-03-01T06:38:00;25.38;;;10.27;;
25319;SDS011;13256;49.012;8.610;2023-03-01T06:41:00;20.73;;;9.60;;
25319;SDS011;13256;49.012;8.610;2023-03-01T06:43:29;24.13;;;11.63;;
25319;SDS011;13256;49.012;8.610;2023-03-01T06:46:04;23.95;;;10.68;;
25319;SDS011;13256;49.012;8.610;2023-03-01T06:48:35;27.85;;;11.02;;
25319;SDS011;13256;49.012;8.610;2023-03-01T06:51:03;27.08;;;11.40;;
25319;SDS011;13256;49.012;8.610;2023-03-01T06:53:34;26.52;;;10.93;;
25319;SDS011;13256;49.012;8.610;2023-03-01T06:56:06;25.55;;;11.23;;
25319;SDS011;13256;49.012;8.610;2023-03-01T06:58:36;23.85;;;10.98;;
25319;SDS011;13256;49.012;8.610;2023-03-01T07:01:11;24.70;;;11.48;;
25319;SDS011;13256;49.012;8.610;2023-03-01T07:03:39;25.05;;;11.75;;
25319;SDS011;13256;49.012;8.610;2023-03-01T07:06:07;26.83;;;12.00;;
25319;SDS011;13256;49.012;8.610;2023-03-01T07:08:42;31.55;;;12.25;;
25319;SDS011;13256;49.012;8.610;2023-03-01T07:11:11;27.92;;;11.73;;
25319;SDS011;13256;49.012;8.610;2023-03-01T07:13:49;27.33;;;11.52;;
25319;SDS011;13256;49.012;8.610;2023-03-01T07:16:16;29.05;;;11.40;;
25319;SDS011;13256;49.012;8.610;2023-03-01T07:19:11;21.10;;;10.65;;
25319;SDS011;13256;49.012;8.610;2023-03-01T07:21:41;22.80;;;11.43;;
25319;SDS011;13256;49.012;8.610;2023-03-01T07:24:08;26.83;;;11.63;;
25319;SDS011;13256;49.012;8.610;2023-03-01T07:26:36;21.98;;;11.45;;
25319;SDS011;13256;49.012;8.610;2023-03-01T07:29:05;21.83;;;11.70;;
25319;SDS011;13256;49.012;8.610;2023-03-01T07:31:41;29.77;;;12.25;;
25319;SDS011;13256;49.012;8.610;2023-03-01T07:34:11;27.10;;;11.18;;
25319;SDS011;13256;49.012;8.610;2023-03-01T07:36:38;34.90;;;12.48;;
25319;SDS011;13256;49.012;8.610;2023-03-01T07:39:10;26.85;;;11.73;;
25319;SDS011;13256;49.012;8.610;2023-03-01T07:41:38;27.00;;;11.85;;
25319;SDS011;13256;49.012;8.610;2023-03-01T07:44:07;25.58;;;11.95;;
25319;SDS011;13256;49.012;8.610;2023-03-01T07:46:42;28.90;;;11.57;;
25319;SDS011;13256;49.012;8.610;2023-03-01T07:49:14;27.20;;;11.73;;
25319;SDS011;13256;49.012;8.610;2023-03-01T07:51:42;29.27;;;12.13;;
25319;SDS011;13256;49.012;8.610;2023-03-01T07:54:27;24.42;;;11.00;;
25319;SDS011;13256;49.012;8.610;2023-03-01T07:56:54;28.48;;;12.45;;
25319;SDS011;13256;49.012;8.610;2023-03-01T07:59:23;30.52;;;11.85;;
25319;SDS011;13256;49.012;8.610;2023-03-01T08:02:02;31.30;;;12.93;;
25319;SDS011;13256;49.012;8.610;2023-03-01T08:04:37;26.00;;;11.52;;
25319;SDS011;13256;49.012;8.610;2023-03-01T08:07:05;26.73;;;11.13;;
25319;SDS011;13256;49.012;8.610;2023-03-01T08:09:34;26.25;;;12.02;;
25319;SDS011;13256;49.012;8.610;2023-03-01T08:12:04;39.05;;;12.13;;
25319;SDS011;13256;49.012;8.610;2023-03-01T08:14:56;22.65;;;10.52;;
25319;SDS011;13256;49.012;8.610;2023-03-01T08:17:26;27.80;;;12.68;;
25319;SDS011;13256;49.012;8.610;2023-03-01T08:19:53;25.98;;;11.82;;
25319;SDS011;13256;49.012;8.610;2023-03-01T08:22:22;28.27;;;11.68;;
25319;SDS011;13256;49.012;8.610;2023-03-01T08:24:55;27.05;;;11.07;;
25319;SDS011;13256;49.012;8.610;2023-03-01T08:30:14;25.05;;;11.27;;
25319;SDS011;13256;49.012;8.610;2023-03-01T08:32:47;26.90;;;11.57;;
25319;SDS011;13256;49.012;8.610;2023-03-01T08:35:14;27.27;;;11.25;;
25319;SDS011;13256;49.012;8.610;2023-03-01T08:37:42;25.95;;;11.48;;
25319;SDS011;13256;49.012;8.610;2023-03-01T08:40:12;26.50;;;12.40;;
25319;SDS011;13256;49.012;8.610;2023-03-01T08:42:41;28.33;;;11.70;;
25319;SDS011;13256;49.012;8.610;2023-03-01T08:45:20;27.95;;;12.52;;
25319;SDS011;13256;49.012;8.610;2023-03-01T08:47:51;26.33;;;11.88;;
25319;SDS011;13256;49.012;8.610;2023-03-01T08:50:19;26.17;;;11.43;;
25319;SDS011;13256;49.012;8.610;2023-03-01T08:52:47;26.67;;;12.15;;
25319;SDS011;13256;49.012;8.610;2023-03-01T08:55:18;28.95;;;11.98;;
25319;SDS011;13256;49.012;8.610;2023-03-01T08:57:48;24.17;;;11.88;;
25319;SDS011;13256;49.012;8.610;2023-03-01T09:00:15;25.27;;;12.10;;
25319;SDS011;13256;49.012;8.610;2023-03-01T09:02:55;30.45;;;13.10;;
25319;SDS011;13256;49.012;8.610;2023-03-01T09:05:36;27.48;;;13.18;;
25319;SDS011;13256;49.012;8.610;2023-03-01T09:08:06;30.98;;;12.43;;
25319;SDS011;13256;49.012;8.610;2023-03-01T09:10:38;29.75;;;13.30;;
25319;SDS011;13256;49.012;8.610;2023-03-01T09:13:05;23.73;;;11.77;;
25319;SDS011;13256;49.012;8.610;2023-03-01T09:15:39;30.75;;;12.65;;
25319;SDS011;13256;49.012;8.610;2023-03-01T09:18:19;28.58;;;13.43;;
25319;SDS011;13256;49.012;8.610;2023-03-01T09:20:47;27.20;;;12.05;;
25319;SDS011;13256;49.012;8.610;2023-03-01T09:23:31;30.20;;;13.05;;
25319;SDS011;13256;49.012;8.610;2023-03-01T09:26:02;25.13;;;13.25;;
25319;SDS011;13256;49.012;8.610;2023-03-01T09:28:36;36.10;;;14.45;;
25319;SDS011;13256;49.012;8.610;2023-03-01T09:31:06;28.10;;;14.57;;
25319;SDS011;13256;49.012;8.610;2023-03-01T09:36:19;28.88;;;12.55;;
25319;SDS011;13256;49.012;8.610;2023-03-01T09:39:18;29.77;;;12.98;;
25319;SDS011;13256;49.012;8.610;2023-03-01T09:41:50;29.00;;;12.90;;
25319;SDS011;13256;49.012;8.610;2023-03-01T09:47:24;24.83;;;12.73;;
25319;SDS011;13256;49.012;8.610;2023-03-01T09:50:02;28.80;;;12.70;;
25319;SDS011;13256;49.012;8.610;2023-03-01T09:53:00;24.55;;;12.32;;
25319;SDS011;13256;49.012;8.610;2023-03-01T09:59:01;27.27;;;12.57;;
25319;SDS011;13256;49.012;8.610;2023-03-01T10:05:30;27.35;;;11.02;;
25319;SDS011;13256;49.012;8.610;2023-03-01T10:33:26;23.95;;;12.70;;
25319;SDS011;13256;49.012;8.610;2023-03-01T10:36:01;28.08;;;14.25;;
25319;SDS011;13256;49.012;8.610;2023-03-01T10:38:30;29.30;;;12.65;;
25319;SDS011;13256;49.012;8.610;2023-03-01T10:41:18;21.92;;;12.65;;
25319;SDS011;13256;49.012;8.610;2023-03-01T10:43:55;24.92;;;12.68;;
25319;SDS011;13256;49.012;8.610;2023-03-01T10:46:34;24.60;;;12.93;;
25319;SDS011;13256;49.012;8.610;2023-03-01T10:49:22;27.92;;;12.57;;
25319;SDS011;13256;49.012;8.610;2023-03-01T10:58:21;27.00;;;13.85;;
25319;SDS011;13256;49.012;8.610;2023-03-01T11:00:58;20.35;;;11.27;;
25319;SDS011;13256;49.012;8.610;2023-03-01T11:06:34;25.67;;;13.73;;
25319;SDS011;13256;49.012;8.610;2023-03-01T11:09:14;26.63;;;14.65;;
25319;SDS011;13256;49.012;8.610;2023-03-01T11:11:43;28.33;;;13.57;;
25319;SDS011;13256;49.012;8.610;2023-03-01T11:20:26;25.20;;;12.63;;
25319;SDS011;13256;49.012;8.610;2023-03-01T11:23:19;24.90;;;12.57;;
25319;SDS011;13256;49.012;8.610;2023-03-01T11:26:10;29.95;;;14.13;;
25319;SDS011;13256;49.012;8.610;2023-03-01T11:28:47;22.33;;;12.00;;
25319;SDS011;13256;49.012;8.610;2023-03-01T11:31:23;23.48;;;13.13;;
25319;SDS011;13256;49.012;8.610;2023-03-01T11:42:06;26.60;;;12.57;;
25319;SDS011;13256;49.012;8.610;2023-03-01T11:48:04;28.98;;;12.93;;
25319;SDS011;13256;49.012;8.610;2023-03-01T11:50:39;25.42;;;13.30;;
25319;SDS011;13256;49.012;8.610;2023-03-01T11:56:49;21.92;;;11.80;;
25319;SDS011;13256;49.012;8.610;2023-03-01T12:09:01;26.02;;;13.93;;
25319;SDS011;13256;49.012;8.610;2023-03-01T12:18:00;30.35;;;13.63;;
25319;SDS011;13256;49.012;8.610;2023-03-01T12:29:55;27.90;;;13.50;;
25319;SDS011;13256;49.012;8.610;2023-03-01T12:39:06;26.05;;;13.02;;
25319;SDS011;13256;49.012;8.610;2023-03-01T12:54:29;25.75;;;12.88;;
25319;SDS011;13256;49.012;8.610;2023-03-01T13:20:47;26.75;;;13.18;;
25319;SDS011;13256;49.012;8.610;2023-03-01T13:26:15;26.17;;;13.05;;
25319;SDS011;13256;49.012;8.610;2023-03-01T13:37:54;23.10;;;11.75;;
25319;SDS011;13256;49.012;8.610;2023-03-01T13:44:42;36.13;;;17.15;;
25319;SDS011;13256;49.012;8.610;2023-03-01T13:58:58;27.40;;;12.38;;
25319;SDS011;13256;49.012;8.610;2023-03-01T14:01:54;22.75;;;12.00;;
25319;SDS011;13256;49.012;8.610;2023-03-01T14:04:58;23.13;;;12.02;;
25319;SDS011;13256;49.012;8.610;2023-03-01T14:07:27;19.67;;;11.25;;
25319;SDS011;13256;49.012;8.610;2023-03-01T14:19:34;23.55;;;11.95;;
25319;SDS011;13256;49.012;8.610;2023-03-01T14:24:59;22.85;;;11.73;;
25319;SDS011;13256;49.012;8.610;2023-03-01T14:27:43;21.50;;;11.35;;
25319;SDS011;13256;49.012;8.610;2023-03-01T14:32:59;21.10;;;11.75;;
25319;SDS011;13256;49.012;8.610;2023-03-01T14:35:59;19.77;;;11.68;;
25319;SDS011;13256;49.012;8.610;2023-03-01T14:44:36;23.92;;;11.80;;
25319;SDS011;13256;49.012;8.610;2023-03-01T14:47:10;21.00;;;11.38;;
25319;SDS011;13256;49.012;8.610;2023-03-01T14:50:31;22.23;;;12.18;;
25319;SDS011;13256;49.012;8.610;2023-03-01T14:56:25;23.17;;;10.85;;
25319;SDS011;13256;49.012;8.610;2023-03-01T15:01:58;29.85;;;12.63;;
25319;SDS011;13256;49.012;8.610;2023-03-01T15:04:31;23.35;;;13.15;;
25319;SDS011;13256;49.012;8.610;2023-03-01T15:07:04;21.48;;;11.00;;
25319;SDS011;13256;49.012;8.610;2023-03-01T15:09:51;19.67;;;11.25;;
25319;SDS011;13256;49.012;8.610;2023-03-01T15:15:36;19.95;;;10.57;;
25319;SDS011;13256;49.012;8.610;2023-03-01T15:18:27;22.65;;;11.90;;
25319;SDS011;13256;49.012;8.610;2023-03-01T15:20:56;21.40;;;11.38;;
25319;SDS011;13256;49.012;8.610;2023-03-01T15:23:48;24.95;;;11.50;;
25319;SDS011;13256;49.012;8.610;2023-03-01T15:29:39;34.10;;;14.93;;
25319;SDS011;13256;49.012;8.610;2023-03-01T15:32:28;66.22;;;20.08;;
25319;SDS011;13256;49.012;8.610;2023-03-01T15:46:45;49.20;;;20.52;;
25319;SDS011;13256;49.012;8.610;2023-03-01T15:52:26;35.72;;;16.45;;
25319;SDS011;13256;49.012;8.610;2023-03-01T15:58:13;27.05;;;12.85;;
25319;SDS011;13256;49.012;8.610;2023-03-01T16:02:00;24.10;;;12.18;;
25319;SDS011;13256;49.012;8.610;2023-03-01T16:04:29;21.27;;;12.60;;
25319;SDS011;13256;49.012;8.610;2023-03-01T16:07:01;25.80;;;12.23;;
25319;SDS011;13256;49.012;8.610;2023-03-01T16:09:36;22.00;;;10.52;;
25319;SDS011;13256;49.012;8.610;2023-03-01T16:12:19;22.05;;;11.52;;
25319;SDS011;13256;49.012;8.610;2023-03-01T16:14:50;22.15;;;11.65;;
25319;SDS011;13256;49.012;8.610;2023-03-01T16:17:19;21.10;;;11.52;;
25319;SDS011;13256;49.012;8.610;2023-03-01T16:19:46;26.05;;;11.82;;
25319;SDS011;13256;49.012;8.610;2023-03-01T16:22:14;21.25;;;10.30;;
25319;SDS011;13256;49.012;8.610;2023-03-01T16:24:41;21.92;;;10.77;;
25319;SDS011;13256;49.012;8.610;2023-03-01T16:30:05;22.63;;;11.45;;
25319;SDS011;13256;49.012;8.610;2023-03-01T16:32:41;20.80;;;10.88;;
25319;SDS011;13256;49.012;8.610;2023-03-01T16:35:11;20.63;;;10.65;;
25319;SDS011;13256;49.012;8.610;2023-03-01T16:37:40;22.38;;;11.57;;
25319;SDS011;13256;49.012;8.610;2023-03-01T16:40:18;20.35;;;11.00;;
25319;SDS011;13256;49.012;8.610;2023-03-01T16:42:55;26.42;;;12.02;;
25319;SDS011;13256;49.012;8.610;2023-03-01T16:46:28;52.80;;;22.33;;
25319;SDS011;13256;49.012;8.610;2023-03-01T16:48:59;27.98;;;11.68;;
25319;SDS011;13256;49.012;8.610;2023-03-01T16:51:28;22.90;;;11.57;;
25319;SDS011;13256;49.012;8.610;2023-03-01T16:57:44;24.55;;;11.68;;
25319;SDS011;13256;49.012;8.610;2023-03-01T17:15:31;23.75;;;10.80;;
25319;SDS011;13256;49.012;8.610;2023-03-01T17:24:41;25.38;;;12.50;;
25319;SDS011;13256;49.012;8.610;2023-03-01T17:27:11;22.08;;;11.45;;
25319;SDS011;13256;49.012;8.610;2023-03-01T17:29:43;40.85;;;18.92;;
25319;SDS011;13256;49.012;8.610;2023-03-01T17:32:14;24.00;;;10.98;;
25319;SDS011;13256;49.012;8.610;2023-03-01T17:37:36;29.23;;;14.10;;
25319;SDS011;13256;49.012;8.610;2023-03-01T17:40:04;21.80;;;11.02;;
25319;SDS011;13256;49.012;8.610;2023-03-01T17:42:39;22.77;;;11.18;;
25319;SDS011;13256;49.012;8.610;2023-03-01T17:45:05;27.35;;;11.82;;
25319;SDS011;13256;49.012;8.610;2023-03-01T17:47:34;21.58;;;11.90;;
25319;SDS011;13256;49.012;8.610;2023-03-01T17:50:01;24.88;;;12.52;;
25319;SDS011;13256;49.012;8.610;2023-03-01T17:52:36;19.23;;;11.57;;
25319;SDS011;13256;49.012;8.610;2023-03-01T17:55:04;28.58;;;14.35;;
25319;SDS011;13256;49.012;8.610;2023-03-01T17:57:37;59.50;;;25.63;;
25319;SDS011;13256;49.012;8.610;2023-03-01T18:00:11;192.90;;;67.95;;
25319;SDS011;13256;49.012;8.610;2023-03-01T18:02:52;248.55;;;88.38;;
25319;SDS011;13256;49.012;8.610;2023-03-01T18:05:27;305.85;;;99.97;;
25319;SDS011;13256;49.012;8.610;2023-03-01T18:08:00;101.03;;;36.83;;
25319;SDS011;13256;49.012;8.610;2023-03-01T18:10:33;43.63;;;18.63;;
25319;SDS011;13256;49.012;8.610;2023-03-01T18:13:20;34.72;;;15.15;;
25319;SDS011;13256;49.012;8.610;2023-03-01T18:15:49;37.08;;;15.02;;
25319;SDS011;13256;49.012;8.610;2023-03-01T18:18:16;46.17;;;20.20;;
25319;SDS011;13256;49.012;8.610;2023-03-01T18:20:54;48.38;;;20.15;;
25319;SDS011;13256;49.012;8.610;2023-03-01T18:23:24;58.60;;;26.38;;
25319;SDS011;13256;49.012;8.610;2023-03-01T18:25:56;95.65;;;42.00;;
25319;SDS011;13256;49.012;8.610;2023-03-01T18:28:28;96.70;;;42.95;;
25319;SDS011;13256;49.012;8.610;2023-03-01T18:30:59;96.28;;;42.80;;
25319;SDS011;13256;49.012;8.610;2023-03-01T18:33:30;90.97;;;39.60;;
25319;SDS011;13256;49.012;8.610;2023-03-01T18:35:59;82.35;;;35.83;;
25319;SDS011;13256;49.012;8.610;2023-03-01T18:38:26;70.20;;;32.75;;
25319;SDS011;13256;49.012;8.610;2023-03-01T18:40:58;87.65;;;36.90;;
25319;SDS011;13256;49.012;8.610;2023-03-01T18:43:29;105.90;;;43.83;;
25319;SDS011;13256;49.012;8.610;2023-03-01T18:45:58;71.57;;;34.25;;
25319;SDS011;13256;49.012;8.610;2023-03-01T18:48:41;74.90;;;34.53;;
25319;SDS011;13256;49.012;8.610;2023-03-01T18:51:10;86.20;;;36.30;;
25319;SDS011;13256;49.012;8.610;2023-03-01T18:53:45;121.72;;;45.42;;
25319;SDS011;13256;49.012;8.610;2023-03-01T18:56:16;105.63;;;39.10;;
25319;SDS011;13256;49.012;8.610;2023-03-01T18:58:47;85.32;;;34.42;;
25319;SDS011;13256;49.012;8.610;2023-03-01T19:01:18;130.52;;;47.00;;
25319;SDS011;13256;49.012;8.610;2023-03-01T19:03:50;144.07;;;56.95;;
25319;SDS011;13256;49.012;8.610;2023-03-01T19:06:18;239.30;;;94.72;;
25319;SDS011;13256;49.012;8.610;2023-03-01T19:08:46;153.07;;;61.17;;
25319;SDS011;13256;49.012;8.610;2023-03-01T19:11:15;124.30;;;51.45;;
25319;SDS011;13256;49.012;8.610;2023-03-01T19:13:45;102.00;;;47.05;;
25319;SDS011;13256;49.012;8.610;2023-03-01T19:16:15;59.53;;;27.65;;
25319;SDS011;13256;49.012;8.610;2023-03-01T19:18:44;46.47;;;20.38;;
25319;SDS011;13256;49.012;8.610;2023-03-01T19:21:20;33.60;;;15.63;;
25319;SDS011;13256;49.012;8.610;2023-03-01T19:23:54;34.25;;;17.20;;
25319;SDS011;13256;49.012;8.610;2023-03-01T19:26:25;39.60;;;17.98;;
25319;SDS011;13256;49.012;8.610;2023-03-01T19:28:53;34.97;;;17.10;;